createdAt,value
2019-03-22T00:00:04.958Z,5.70
2019-03-22T00:04:10.821Z,5.83
2019-03-22T00:08:15.638Z,5.07
2019-03-22T00:12:19.996Z,4.93
2019-03-22T00:16:24.305Z,4.47
2019-03-22T00:20:28.768Z,5.10
2019-03-22T00:24:33.059Z,4.63
2019-03-22T00:28:37.602Z,4.30
2019-03-22T00:32:41.988Z,4.10
2019-03-22T00:36:46.388Z,3.77
2019-03-22T00:40:50.704Z,3.30
2019-03-22T00:44:55.217Z,3.80
2019-03-22T00:48:59.451Z,3.40
2019-03-22T00:53:03.784Z,2.93
2019-03-22T00:57:08.081Z,2.63
2019-03-22T01:01:12.444Z,2.30
2019-03-22T01:05:16.780Z,2.27
2019-03-22T01:09:21.123Z,2.27
2019-03-22T01:13:25.523Z,2.00
2019-03-22T01:17:29.868Z,1.80
2019-03-22T01:21:34.231Z,2.17
2019-03-22T01:25:38.622Z,1.83
2019-03-22T01:29:42.889Z,2.13
2019-03-22T01:33:47.157Z,1.80
2019-03-22T01:37:51.501Z,1.70
2019-03-22T01:41:55.760Z,2.13
2019-03-22T01:46:00.283Z,1.70
2019-03-22T01:50:05.273Z,1.60
2019-03-22T01:54:09.601Z,1.90
2019-03-22T01:58:13.852Z,1.73
2019-03-22T02:02:18.214Z,1.70
2019-03-22T02:06:22.675Z,2.07
2019-03-22T02:10:27.148Z,1.70
2019-03-22T02:14:31.469Z,1.60
2019-03-22T02:18:35.845Z,1.83
2019-03-22T02:22:40.335Z,1.80
2019-03-22T02:26:44.766Z,1.90
2019-03-22T02:30:49.065Z,2.03
2019-03-22T02:34:53.337Z,1.63
2019-03-22T02:38:57.737Z,1.67
2019-03-22T02:43:02.246Z,1.50
2019-03-22T02:47:06.564Z,1.43
2019-03-22T02:51:10.971Z,1.70
2019-03-22T02:55:15.313Z,1.97
2019-03-22T02:59:19.679Z,1.83
2019-03-22T03:03:23.982Z,1.70
2019-03-22T03:07:29.589Z,1.73
2019-03-22T03:11:33.948Z,2.13
2019-03-22T03:15:39.504Z,1.50
2019-03-22T03:19:43.797Z,1.90
2019-03-22T03:23:48.176Z,1.70
2019-03-22T03:27:52.500Z,2.00
2019-03-22T03:31:56.791Z,2.00
2019-03-22T03:36:01.023Z,1.73
2019-03-22T03:40:06.523Z,1.67
2019-03-22T03:44:10.917Z,1.63
2019-03-22T03:48:15.246Z,2.00
2019-03-22T03:52:19.493Z,1.90
2019-03-22T03:56:23.723Z,1.60
2019-03-22T04:05:16.048Z,1.73
2019-03-22T04:09:20.425Z,2.07
2019-03-22T04:13:24.870Z,2.07
2019-03-22T04:17:29.145Z,2.33
2019-03-22T04:21:34.733Z,1.87
2019-03-22T04:25:39.136Z,1.90
2019-03-22T04:29:43.366Z,1.53
2019-03-22T04:33:47.805Z,1.63
2019-03-22T04:37:52.208Z,1.73
2019-03-22T04:41:56.528Z,2.10
2019-03-22T04:46:01.097Z,2.17
2019-03-22T04:50:05.535Z,2.00
2019-03-22T04:54:10.151Z,1.83
2019-03-22T04:58:14.984Z,1.90
2019-03-22T05:02:19.357Z,1.93
2019-03-22T05:06:24.078Z,1.77
2019-03-22T05:10:28.344Z,2.40
2019-03-22T05:14:33.240Z,1.87
2019-03-22T05:18:39.190Z,1.93
2019-03-22T05:22:44.186Z,1.93
2019-03-22T05:26:49.598Z,2.07
2019-03-22T05:31:12.941Z,2.10
2019-03-22T05:35:17.276Z,1.97
2019-03-22T05:39:21.776Z,2.13
2019-03-22T05:43:26.002Z,1.67
2019-03-22T05:47:30.427Z,1.93
2019-03-22T05:51:34.707Z,2.00
2019-03-22T05:55:39.135Z,2.00
2019-03-22T05:59:43.553Z,1.40
2019-03-22T06:03:47.972Z,2.00
2019-03-22T06:07:52.299Z,1.87
2019-03-22T06:11:56.699Z,1.60
2019-03-22T06:16:00.901Z,1.43
2019-03-22T06:20:05.411Z,2.03
2019-03-22T06:24:09.904Z,1.60
2019-03-22T06:28:14.330Z,1.43
2019-03-22T06:32:18.625Z,1.57
2019-03-22T06:36:24.138Z,1.40
2019-03-22T06:40:28.825Z,1.77
2019-03-22T06:44:34.249Z,1.80
2019-03-22T06:48:38.617Z,1.70
2019-03-22T06:52:42.819Z,1.87
2019-03-22T06:56:47.665Z,1.60
2019-03-22T07:00:51.941Z,1.90
2019-03-22T07:04:57.446Z,1.87
2019-03-22T07:09:01.649Z,1.90
2019-03-22T07:13:07.319Z,1.90
2019-03-22T07:17:11.684Z,2.20
2019-03-22T07:21:15.982Z,1.67
2019-03-22T07:25:20.312Z,1.90
2019-03-22T07:29:24.797Z,1.57
2019-03-22T07:33:29.156Z,1.70
2019-03-22T07:37:33.554Z,1.87
2019-03-22T07:41:37.897Z,2.10
2019-03-22T07:45:42.402Z,2.15
2019-03-22T07:49:46.802Z,1.82
2019-03-22T07:53:51.373Z,2.65
2019-03-22T07:57:55.746Z,2.20
2019-03-22T08:02:00.022Z,2.62
2019-03-22T08:06:04.713Z,1.82
2019-03-22T08:10:09.110Z,1.92
2019-03-22T08:14:16.243Z,1.90
2019-03-22T08:18:19.623Z,2.08
2019-03-22T08:22:23.892Z,2.02
2019-03-22T08:26:28.414Z,1.75
2019-03-22T08:30:42.362Z,2.25
2019-03-22T08:34:39.027Z,2.00
2019-03-22T08:38:43.457Z,2.15
2019-03-22T08:42:48.112Z,1.70
2019-03-22T08:46:52.411Z,1.75
2019-03-22T08:50:56.823Z,1.70
2019-03-22T08:55:01.496Z,1.37
2019-03-22T08:59:07.010Z,1.85
2019-03-22T09:03:11.384Z,1.95
2019-03-22T09:07:15.928Z,1.95
2019-03-22T09:11:20.289Z,2.10
2019-03-22T09:15:24.573Z,1.85
2019-03-22T09:19:29.044Z,1.62
2019-03-22T09:23:33.489Z,2.22
2019-03-22T09:27:37.968Z,2.08
2019-03-22T09:31:42.477Z,2.12
2019-03-22T09:35:48.436Z,2.83
2019-03-22T09:39:52.819Z,2.15
2019-03-22T09:43:57.317Z,2.08
2019-03-22T09:48:01.706Z,1.90
2019-03-22T09:52:06.288Z,2.30
2019-03-22T09:56:10.835Z,2.37
2019-03-22T10:00:19.450Z,2.12
2019-03-22T10:04:23.830Z,1.80
2019-03-22T10:08:28.236Z,2.60
2019-03-22T10:12:32.645Z,2.58
2019-03-22T10:16:38.961Z,2.80
2019-03-22T10:20:43.467Z,2.40
2019-03-22T10:24:47.921Z,2.10
2019-03-22T10:28:52.459Z,2.45
2019-03-22T10:32:56.737Z,2.27
2019-03-22T10:37:01.179Z,2.30
2019-03-22T10:41:05.644Z,2.42
2019-03-22T10:45:10.168Z,2.20
2019-03-22T10:49:14.603Z,2.47
2019-03-22T10:53:18.938Z,2.27
2019-03-22T10:57:23.203Z,2.35
2019-03-22T11:01:28.862Z,2.70
2019-03-22T11:05:33.178Z,2.50
2019-03-22T11:09:37.503Z,2.67
2019-03-22T11:13:41.782Z,2.52
2019-03-22T11:17:46.341Z,3.00
2019-03-22T11:21:50.763Z,2.27
2019-03-22T11:26:03.788Z,2.52
2019-03-22T11:30:01.338Z,2.85
2019-03-22T11:34:05.931Z,2.35
2019-03-22T11:38:10.825Z,2.50
2019-03-22T11:42:15.292Z,2.60
2019-03-22T11:46:19.640Z,2.70
2019-03-22T11:50:24.263Z,2.70
2019-03-22T11:54:28.633Z,2.92
2019-03-22T11:58:33.264Z,3.20
2019-03-22T12:02:37.743Z,2.98
2019-03-22T12:06:42.172Z,3.30
2019-03-22T12:10:46.582Z,2.92
2019-03-22T12:14:51.075Z,3.17
2019-03-22T12:18:55.692Z,3.10
2019-03-22T12:23:00.520Z,3.17
2019-03-22T12:27:04.972Z,3.50
2019-03-22T12:31:09.289Z,3.30
2019-03-22T12:35:14.094Z,3.92
2019-03-22T12:39:19.525Z,3.27
2019-03-22T12:43:23.980Z,2.98
2019-03-22T12:47:28.460Z,3.00
2019-03-22T12:51:32.944Z,3.02
2019-03-22T12:55:37.384Z,3.95
2019-03-22T12:59:41.777Z,3.08
2019-03-22T13:03:46.582Z,2.33
2019-03-22T13:07:51.009Z,2.47
2019-03-22T13:11:55.349Z,2.05
2019-03-22T13:15:59.776Z,2.35
2019-03-22T13:20:06.078Z,2.50
2019-03-22T13:24:10.550Z,1.72
2019-03-22T13:28:14.985Z,2.83
2019-03-22T13:32:19.534Z,2.80
2019-03-22T13:36:23.953Z,2.30
2019-03-22T13:40:28.521Z,2.98
2019-03-22T13:44:33.278Z,2.27
2019-03-22T13:48:37.708Z,2.25
2019-03-22T13:52:42.183Z,2.17
2019-03-22T13:56:46.628Z,2.08
2019-03-22T14:00:51.071Z,2.30
2019-03-22T14:04:55.562Z,1.85
2019-03-22T14:08:59.863Z,1.92
2019-03-22T14:13:04.964Z,1.92
2019-03-22T14:17:09.315Z,1.92
2019-03-22T14:21:13.699Z,1.60
2019-03-22T14:25:18.112Z,2.05
2019-03-22T14:29:22.591Z,1.50
2019-03-22T14:33:26.967Z,2.02
2019-03-22T14:37:31.347Z,1.60
2019-03-22T14:41:35.716Z,1.60
2019-03-22T14:45:40.056Z,1.57
2019-03-22T14:49:44.354Z,1.27
2019-03-22T14:53:48.858Z,1.05
2019-03-22T14:57:53.272Z,1.07
2019-03-22T15:01:57.829Z,1.10
2019-03-22T15:06:02.204Z,1.12
2019-03-22T15:10:07.146Z,0.95
2019-03-22T15:14:30.844Z,0.85
2019-03-22T15:18:43.457Z,0.70
2019-03-22T15:23:04.551Z,0.60
2019-03-22T15:27:28.241Z,0.50
2019-03-22T15:31:51.928Z,0.53
2019-03-22T15:36:15.565Z,0.50
2019-03-22T15:40:19.991Z,0.57
2019-03-22T15:44:24.407Z,0.50
2019-03-22T15:48:28.785Z,0.40
2019-03-22T15:52:33.250Z,0.45
2019-03-22T15:56:38.684Z,0.50
2019-03-22T16:00:43.158Z,0.50
2019-03-22T16:04:47.559Z,0.60
2019-03-22T16:08:51.933Z,0.60
2019-03-22T16:12:56.365Z,0.70
2019-03-22T16:17:00.959Z,0.50
2019-03-22T16:21:06.756Z,0.68
2019-03-22T16:25:11.343Z,0.60
2019-03-22T16:29:15.975Z,0.80
2019-03-22T16:33:20.364Z,0.70
2019-03-22T16:37:25.796Z,0.60
2019-03-22T16:41:30.264Z,0.78
2019-03-22T16:45:35.908Z,0.82
2019-03-22T16:49:40.344Z,0.68
2019-03-22T16:53:44.704Z,0.78
2019-03-22T16:57:49.124Z,0.80
2019-03-22T17:01:53.577Z,0.90
2019-03-22T17:05:58.017Z,1.00
2019-03-22T17:10:02.506Z,0.98
2019-03-22T17:14:06.853Z,1.10
2019-03-22T17:18:11.427Z,0.93
2019-03-22T17:22:16.044Z,0.90
2019-03-22T17:26:22.260Z,1.20
2019-03-22T17:30:26.784Z,1.10
2019-03-22T17:34:31.174Z,1.05
2019-03-22T17:38:35.697Z,1.20
2019-03-22T17:42:40.029Z,1.32
2019-03-22T17:46:44.608Z,1.25
2019-03-22T17:50:49.811Z,1.50
2019-03-22T17:54:54.462Z,1.17
2019-03-22T17:58:58.945Z,1.30
2019-03-22T18:03:03.445Z,1.40
2019-03-22T18:07:07.975Z,1.60
2019-03-22T18:11:12.307Z,1.45
2019-03-22T18:15:16.757Z,1.62
2019-03-22T18:19:21.075Z,1.82
2019-03-22T18:23:35.506Z,2.20
2019-03-22T18:27:32.771Z,1.60
2019-03-22T18:31:37.194Z,1.80
2019-03-22T18:35:41.653Z,1.45
2019-03-22T18:39:46.029Z,1.60
2019-03-22T18:43:50.630Z,1.95
2019-03-22T18:47:55.130Z,1.72
2019-03-22T18:51:59.652Z,1.90
2019-03-22T18:56:04.112Z,3.58
2019-03-22T19:00:08.829Z,5.90
2019-03-22T19:04:13.193Z,4.60
2019-03-22T19:08:17.901Z,3.00
2019-03-22T19:12:23.365Z,2.62
2019-03-22T19:16:27.753Z,2.30
2019-03-22T19:20:32.188Z,14.15
2019-03-22T19:24:37.607Z,8.83
2019-03-22T19:28:42.359Z,5.60
2019-03-22T19:32:47.159Z,8.08
2019-03-22T19:36:51.613Z,7.10
2019-03-22T19:40:56.028Z,6.03
2019-03-22T19:45:00.580Z,3.98
2019-03-22T19:49:05.140Z,3.17
2019-03-22T19:53:10.667Z,3.17
2019-03-22T19:57:14.933Z,2.67
2019-03-22T20:01:19.272Z,4.40
2019-03-22T20:05:27.639Z,5.17
2019-03-22T20:09:32.077Z,3.77
2019-03-22T20:13:36.344Z,4.00
2019-03-22T20:17:40.719Z,2.67
2019-03-22T20:21:45.045Z,3.00
2019-03-22T20:25:49.554Z,2.65
2019-03-22T20:29:54.009Z,2.57
2019-03-22T20:33:58.297Z,2.60
2019-03-22T20:38:02.657Z,6.13
2019-03-22T20:42:07.109Z,3.07
2019-03-22T20:46:11.454Z,2.97
2019-03-22T20:50:15.945Z,2.73
2019-03-22T20:54:20.180Z,2.40
2019-03-22T20:58:24.579Z,2.73
2019-03-22T21:02:29.005Z,3.03
2019-03-22T21:06:33.426Z,2.57
2019-03-22T21:10:39.484Z,2.90
2019-03-22T21:14:44.073Z,3.30
2019-03-22T21:18:48.460Z,3.40
2019-03-22T21:22:52.854Z,2.97
2019-03-22T21:26:57.198Z,3.00
2019-03-22T21:31:01.463Z,2.90
2019-03-22T21:35:06.243Z,2.50
2019-03-22T21:39:10.807Z,2.73
2019-03-22T21:43:15.112Z,2.87
2019-03-22T21:47:19.720Z,2.97
2019-03-22T21:51:24.005Z,2.97
2019-03-22T21:55:28.349Z,2.40
2019-03-22T21:59:32.827Z,2.70
2019-03-22T22:03:37.191Z,2.87
2019-03-22T22:07:41.469Z,2.67
2019-03-22T22:11:45.746Z,3.33
2019-03-22T22:15:50.177Z,2.67
2019-03-22T22:19:54.585Z,2.17
2019-03-22T22:23:58.916Z,2.30
2019-03-22T22:28:03.231Z,2.80
2019-03-22T22:32:07.433Z,2.37
2019-03-22T22:36:11.817Z,3.10
2019-03-22T22:40:16.199Z,3.27
2019-03-22T22:44:20.444Z,2.63
2019-03-22T22:48:24.905Z,2.90
2019-03-22T22:52:29.229Z,3.27
2019-03-22T22:56:33.570Z,5.87
2019-03-22T23:00:37.892Z,5.67
2019-03-22T23:04:42.277Z,4.20
2019-03-22T23:08:46.553Z,4.40
2019-03-22T23:12:51.489Z,3.90
2019-03-22T23:16:55.840Z,3.77
2019-03-22T23:21:00.301Z,4.10
2019-03-22T23:25:04.928Z,4.13
2019-03-22T23:29:09.537Z,3.93
2019-03-22T23:33:13.869Z,4.33
2019-03-22T23:37:18.164Z,3.90
2019-03-22T23:41:22.534Z,3.63
2019-03-22T23:45:26.887Z,4.10
2019-03-22T23:49:31.481Z,3.57
2019-03-22T23:53:35.625Z,3.60
2019-03-22T23:57:40.093Z,4.40
